Disclaimer

Please do not use the information listed here in-flight or in-navigation, as they are not provided to us by the airports but are provided by volunteers, so they might be outdated.

Search


Regions


Airport information page

Radio informations:
Tower (TWR) - 118.3 MHz
WINGOPS - 293.8 MHz
Clearance delivery - 121.6 MHz
Automatic Terminal Information Service (ATIS) - 126.125 MHz
Approach (APP) - 119.975 MHz

Airport informations:
Latitude: 60° 11' 38.10" N
Longitude: 011° 06' 01.30" E
Elevation: 681 feet - 208 meters
Operating hours: 24 hour operations
Operating agency: Military-civil joint use airport
Timezone: UTC+1(+2DT) - Last Sunday in March to last Sunday in October
Fuel: JP-4, Wide cut turbine fuel MIL Spec T-5624

Jet A1, without icing nhibitor.

100/130 MIL Spec, low lead, aviation gasoline (BLUE)

Runway information:
01R/19L - 9678 x 148 feet< - >2950 x 45 meters
01L/19R - 11811 x 148 feet< - >3600 x 45 meters

Recent METARs:
ENGM 160550Z 17004KT 110V210 9999 BKN018 06/04 Q1029 NOSIG
ENGM 160620Z 15006KT 100V200 9999 FEW014 BKN017 06/05 Q1029 NOSIG
ENGM 160650Z 19007KT 9999 FEW013 BKN016 06/04 Q1030 NOSIG

Airport on the map: